sensor_id;sensor_type;location;lat;lon;timestamp;pressure;altitude;pressure_sealevel;temperature;humidity
73101;BME280;61288;53.446;-2.266;2022-10-16T00:01:16;99635.13;;;8.23;93.90
73101;BME280;61288;53.446;-2.266;2022-10-16T00:03:43;99667.16;;;8.19;94.01
73101;BME280;61288;53.446;-2.266;2022-10-16T00:06:10;99664.72;;;8.16;94.39
73101;BME280;61288;53.446;-2.266;2022-10-16T00:08:37;99682.94;;;8.13;95.20
73101;BME280;61288;53.446;-2.266;2022-10-16T00:11:06;99661.47;;;8.13;95.26
73101;BME280;61288;53.446;-2.266;2022-10-16T00:13:33;99663.25;;;8.10;95.62
73101;BME280;61288;53.446;-2.266;2022-10-16T00:16:00;99660.75;;;8.09;95.59
73101;BME280;61288;53.446;-2.266;2022-10-16T00:18:27;99663.41;;;8.07;96.11
73101;BME280;61288;53.446;-2.266;2022-10-16T00:20:53;99660.97;;;8.04;96.19
73101;BME280;61288;53.446;-2.266;2022-10-16T00:23:19;99666.28;;;8.01;95.82
73101;BME280;61288;53.446;-2.266;2022-10-16T00:25:54;99679.31;;;7.98;96.35
73101;BME280;61288;53.446;-2.266;2022-10-16T00:28:20;99678.56;;;7.96;96.48
73101;BME280;61288;53.446;-2.266;2022-10-16T00:30:46;99659.72;;;7.94;96.64
73101;BME280;61288;53.446;-2.266;2022-10-16T00:33:11;99662.44;;;7.91;97.08
73101;BME280;61288;53.446;-2.266;2022-10-16T00:35:37;99676.16;;;7.91;96.77
73101;BME280;61288;53.446;-2.266;2022-10-16T00:38:02;99677.06;;;7.90;97.11
73101;BME280;61288;53.446;-2.266;2022-10-16T00:40:28;99677.06;;;7.90;97.19
73101;BME280;61288;53.446;-2.266;2022-10-16T00:42:54;99686.56;;;7.90;97.26
73101;BME280;61288;53.446;-2.266;2022-10-16T00:45:19;99684.06;;;7.88;96.86
73101;BME280;61288;53.446;-2.266;2022-10-16T00:47:47;99680.72;;;7.86;96.88
73101;BME280;61288;53.446;-2.266;2022-10-16T00:50:33;99675.63;;;7.85;97.19
73101;BME280;61288;53.446;-2.266;2022-10-16T00:53:01;99687.69;;;7.84;97.14
73101;BME280;61288;53.446;-2.266;2022-10-16T00:55:28;99681.84;;;7.80;97.19
73101;BME280;61288;53.446;-2.266;2022-10-16T00:57:56;99690.50;;;7.79;97.13
73101;BME280;61288;53.446;-2.266;2022-10-16T01:00:25;99690.53;;;7.78;96.39
73101;BME280;61288;53.446;-2.266;2022-10-16T01:02:56;99703.44;;;7.78;96.70
73101;BME280;61288;53.446;-2.266;2022-10-16T01:05:26;99713.00;;;7.76;96.79
73101;BME280;61288;53.446;-2.266;2022-10-16T01:08:01;99709.66;;;7.74;96.87
73101;BME280;61288;53.446;-2.266;2022-10-16T01:10:49;99706.34;;;7.70;97.77
73101;BME280;61288;53.446;-2.266;2022-10-16T01:13:23;99717.44;;;7.72;97.09
73101;BME280;61288;53.446;-2.266;2022-10-16T01:15:56;99716.53;;;7.73;96.71
73101;BME280;61288;53.446;-2.266;2022-10-16T01:18:33;99716.63;;;7.72;96.83
73101;BME280;61288;53.446;-2.266;2022-10-16T01:21:15;99717.53;;;7.71;97.27
73101;BME280;61288;53.446;-2.266;2022-10-16T01:24:01;99714.94;;;7.71;97.05
73101;BME280;61288;53.446;-2.266;2022-10-16T01:26:39;99723.44;;;7.73;97.42
73101;BME280;61288;53.446;-2.266;2022-10-16T01:31:41;99724.25;;;7.73;97.28
73101;BME280;61288;53.446;-2.266;2022-10-16T01:34:15;99730.28;;;7.74;97.41
73101;BME280;61288;53.446;-2.266;2022-10-16T01:36:47;99738.00;;;7.74;97.74
73101;BME280;61288;53.446;-2.266;2022-10-16T01:39:16;99747.28;;;7.78;97.11
73101;BME280;61288;53.446;-2.266;2022-10-16T01:41:49;99748.09;;;7.78;97.26
73101;BME280;61288;53.446;-2.266;2022-10-16T01:44:20;99747.22;;;7.79;97.21
73101;BME280;61288;53.446;-2.266;2022-10-16T01:46:50;99760.03;;;7.81;96.26
73101;BME280;61288;53.446;-2.266;2022-10-16T01:49:17;99764.16;;;7.85;95.80
73101;BME280;61288;53.446;-2.266;2022-10-16T01:51:47;99778.81;;;7.85;95.82
73101;BME280;61288;53.446;-2.266;2022-10-16T01:54:16;99781.38;;;7.85;96.53
73101;BME280;61288;53.446;-2.266;2022-10-16T01:56:45;99778.81;;;7.85;95.79
73101;BME280;61288;53.446;-2.266;2022-10-16T01:59:14;99785.78;;;7.83;96.04
73101;BME280;61288;53.446;-2.266;2022-10-16T02:01:45;99796.09;;;7.83;95.28
73101;BME280;61288;53.446;-2.266;2022-10-16T02:04:26;99797.75;;;7.84;94.73
73101;BME280;61288;53.446;-2.266;2022-10-16T02:06:55;99798.66;;;7.83;94.85
73101;BME280;61288;53.446;-2.266;2022-10-16T02:09:21;99810.78;;;7.80;94.97
73101;BME280;61288;53.446;-2.266;2022-10-16T02:11:46;99810.72;;;7.82;94.79
73101;BME280;61288;53.446;-2.266;2022-10-16T02:14:14;99809.94;;;7.80;95.56
73101;BME280;61288;53.446;-2.266;2022-10-16T02:16:43;99809.16;;;7.78;95.27
73101;BME280;61288;53.446;-2.266;2022-10-16T02:19:10;99817.03;;;7.75;95.59
73101;BME280;61288;53.446;-2.266;2022-10-16T02:24:33;99823.09;;;7.74;94.57
73101;BME280;61288;53.446;-2.266;2022-10-16T02:29:31;99851.59;;;7.71;95.04
73101;BME280;61288;53.446;-2.266;2022-10-16T02:32:01;99856.00;;;7.69;94.78
73101;BME280;61288;53.446;-2.266;2022-10-16T02:34:28;99866.16;;;7.72;94.66
73101;BME280;61288;53.446;-2.266;2022-10-16T02:36:56;99863.78;;;7.67;94.95
73101;BME280;61288;53.446;-2.266;2022-10-16T02:39:22;99886.22;;;7.65;94.35
73101;BME280;61288;53.446;-2.266;2022-10-16T02:41:48;99885.44;;;7.63;95.10
73101;BME280;61288;53.446;-2.266;2022-10-16T02:44:13;99889.81;;;7.61;94.33
73101;BME280;61288;53.446;-2.266;2022-10-16T02:46:39;99900.97;;;7.61;94.41
73101;BME280;61288;53.446;-2.266;2022-10-16T02:49:04;99904.44;;;7.60;94.89
73101;BME280;61288;53.446;-2.266;2022-10-16T02:51:30;99907.88;;;7.61;94.50
73101;BME280;61288;53.446;-2.266;2022-10-16T02:53:55;99913.94;;;7.60;94.63
73101;BME280;61288;53.446;-2.266;2022-10-16T02:56:21;99922.56;;;7.59;94.11
73101;BME280;61288;53.446;-2.266;2022-10-16T02:58:46;99926.03;;;7.58;93.97
73101;BME280;61288;53.446;-2.266;2022-10-16T03:01:12;99920.16;;;7.54;94.03
73101;BME280;61288;53.446;-2.266;2022-10-16T03:03:39;99922.03;;;7.50;94.28
73101;BME280;61288;53.446;-2.266;2022-10-16T03:06:05;99935.06;;;7.47;94.58
73101;BME280;61288;53.446;-2.266;2022-10-16T03:08:31;99935.16;;;7.44;94.47
73101;BME280;61288;53.446;-2.266;2022-10-16T03:10:56;99940.50;;;7.40;94.93
73101;BME280;61288;53.446;-2.266;2022-10-16T03:13:22;99944.94;;;7.36;94.34
73101;BME280;61288;53.446;-2.266;2022-10-16T03:15:47;99949.31;;;7.34;93.98
73101;BME280;61288;53.446;-2.266;2022-10-16T03:18:13;99959.75;;;7.31;94.08
73101;BME280;61288;53.446;-2.266;2022-10-16T03:20:39;99966.75;;;7.27;94.80
73101;BME280;61288;53.446;-2.266;2022-10-16T03:23:05;99978.16;;;7.21;94.33
73101;BME280;61288;53.446;-2.266;2022-10-16T03:25:34;99986.81;;;7.19;94.53
73101;BME280;61288;53.446;-2.266;2022-10-16T03:27:59;99984.44;;;7.14;94.46
73101;BME280;61288;53.446;-2.266;2022-10-16T03:30:25;99996.47;;;7.14;94.39
73101;BME280;61288;53.446;-2.266;2022-10-16T03:32:51;100012.16;;;7.07;94.68
73101;BME280;61288;53.446;-2.266;2022-10-16T03:35:20;100013.09;;;7.05;94.15
73101;BME280;61288;53.446;-2.266;2022-10-16T03:37:45;100018.38;;;7.02;94.23
73101;BME280;61288;53.446;-2.266;2022-10-16T03:40:11;100021.94;;;6.98;94.15
73101;BME280;61288;53.446;-2.266;2022-10-16T03:42:37;100030.69;;;6.93;93.14
73101;BME280;61288;53.446;-2.266;2022-10-16T03:45:03;100042.78;;;6.91;93.72
73101;BME280;61288;53.446;-2.266;2022-10-16T03:47:29;100042.81;;;6.90;93.16
73101;BME280;61288;53.446;-2.266;2022-10-16T03:49:54;100043.84;;;6.86;92.63
73101;BME280;61288;53.446;-2.266;2022-10-16T03:52:20;100049.94;;;6.83;92.31
73101;BME280;61288;53.446;-2.266;2022-10-16T03:54:45;100056.03;;;6.81;93.12
73101;BME280;61288;53.446;-2.266;2022-10-16T03:57:11;100054.41;;;6.78;92.67
73101;BME280;61288;53.446;-2.266;2022-10-16T03:59:36;100069.13;;;6.74;93.23
73101;BME280;61288;53.446;-2.266;2022-10-16T04:02:02;100076.91;;;6.73;93.59
73101;BME280;61288;53.446;-2.266;2022-10-16T04:04:27;100098.50;;;6.69;93.62
73101;BME280;61288;53.446;-2.266;2022-10-16T04:06:53;100107.22;;;6.64;93.86
73101;BME280;61288;53.446;-2.266;2022-10-16T04:09:18;100104.75;;;6.61;94.44
73101;BME280;61288;53.446;-2.266;2022-10-16T04:11:44;100115.97;;;6.59;93.98
73101;BME280;61288;53.446;-2.266;2022-10-16T04:14:09;100113.47;;;6.57;94.48
73101;BME280;61288;53.446;-2.266;2022-10-16T04:16:35;100118.66;;;6.56;94.83
73101;BME280;61288;53.446;-2.266;2022-10-16T04:19:01;100120.50;;;6.52;94.78
73101;BME280;61288;53.446;-2.266;2022-10-16T04:21:26;100127.47;;;6.48;94.99
73101;BME280;61288;53.446;-2.266;2022-10-16T04:23:52;100127.53;;;6.47;94.86
73101;BME280;61288;53.446;-2.266;2022-10-16T04:26:17;100137.91;;;6.44;94.82
73101;BME280;61288;53.446;-2.266;2022-10-16T04:28:43;100143.06;;;6.44;95.68
73101;BME280;61288;53.446;-2.266;2022-10-16T04:33:35;100154.34;;;6.40;95.65
73101;BME280;61288;53.446;-2.266;2022-10-16T04:36:02;100160.47;;;6.35;95.78
73101;BME280;61288;53.446;-2.266;2022-10-16T04:38:28;100162.25;;;6.33;95.49
73101;BME280;61288;53.446;-2.266;2022-10-16T04:40:53;100166.63;;;6.31;95.54
73101;BME280;61288;53.446;-2.266;2022-10-16T04:43:19;100170.13;;;6.29;95.36
73101;BME280;61288;53.446;-2.266;2022-10-16T04:45:44;100178.69;;;6.29;96.10
73101;BME280;61288;53.446;-2.266;2022-10-16T04:48:10;100193.34;;;6.27;95.71
73101;BME280;61288;53.446;-2.266;2022-10-16T04:50:36;100189.09;;;6.26;95.76
73101;BME280;61288;53.446;-2.266;2022-10-16T04:53:01;100191.75;;;6.23;95.18
73101;BME280;61288;53.446;-2.266;2022-10-16T04:55:27;100198.69;;;6.21;95.53
73101;BME280;61288;53.446;-2.266;2022-10-16T04:57:53;100201.25;;;6.21;95.31
73101;BME280;61288;53.446;-2.266;2022-10-16T05:00:18;100202.13;;;6.20;94.95
73101;BME280;61288;53.446;-2.266;2022-10-16T05:02:44;100208.22;;;6.17;94.88
73101;BME280;61288;53.446;-2.266;2022-10-16T05:05:09;100222.03;;;6.15;95.30
73101;BME280;61288;53.446;-2.266;2022-10-16T05:07:36;100219.50;;;6.12;94.96
73101;BME280;61288;53.446;-2.266;2022-10-16T05:10:02;100228.97;;;6.11;94.71
73101;BME280;61288;53.446;-2.266;2022-10-16T05:12:28;100229.91;;;6.09;94.82
73101;BME280;61288;53.446;-2.266;2022-10-16T05:14:54;100232.53;;;6.07;95.16
73101;BME280;61288;53.446;-2.266;2022-10-16T05:17:24;100241.13;;;6.06;95.19
73101;BME280;61288;53.446;-2.266;2022-10-16T05:19:50;100241.22;;;6.03;94.87
73101;BME280;61288;53.446;-2.266;2022-10-16T05:22:16;100245.56;;;5.99;94.25
73101;BME280;61288;53.446;-2.266;2022-10-16T05:24:42;100260.22;;;5.97;94.74
73101;BME280;61288;53.446;-2.266;2022-10-16T05:27:07;100262.88;;;5.94;94.11
73101;BME280;61288;53.446;-2.266;2022-10-16T05:29:33;100272.34;;;5.92;94.51
73101;BME280;61288;53.446;-2.266;2022-10-16T05:31:58;100275.81;;;5.91;94.10
73101;BME280;61288;53.446;-2.266;2022-10-16T05:34:24;100281.78;;;5.91;94.54
73101;BME280;61288;53.446;-2.266;2022-10-16T05:36:49;100283.63;;;5.88;93.31
73101;BME280;61288;53.446;-2.266;2022-10-16T05:39:15;100281.88;;;5.88;93.47
73101;BME280;61288;53.446;-2.266;2022-10-16T05:41:42;100297.38;;;5.87;93.45
73101;BME280;61288;53.446;-2.266;2022-10-16T05:44:07;100308.56;;;5.84;93.16
73101;BME280;61288;53.446;-2.266;2022-10-16T05:46:33;100314.56;;;5.85;93.81
73101;BME280;61288;53.446;-2.266;2022-10-16T05:48:59;100318.03;;;5.84;94.22
73101;BME280;61288;53.446;-2.266;2022-10-16T05:51:24;100321.47;;;5.83;94.08
73101;BME280;61288;53.446;-2.266;2022-10-16T05:53:50;100333.53;;;5.81;93.29
73101;BME280;61288;53.446;-2.266;2022-10-16T05:56:17;100331.88;;;5.78;94.16
73101;BME280;61288;53.446;-2.266;2022-10-16T05:58:42;100334.44;;;5.78;93.86
73101;BME280;61288;53.446;-2.266;2022-10-16T06:01:15;100340.56;;;5.74;93.73
73101;BME280;61288;53.446;-2.266;2022-10-16T06:03:41;100343.16;;;5.72;92.87
73101;BME280;61288;53.446;-2.266;2022-10-16T06:06:24;100344.13;;;5.68;93.11
73101;BME280;61288;53.446;-2.266;2022-10-16T06:08:51;100345.88;;;5.66;93.12
73101;BME280;61288;53.446;-2.266;2022-10-16T06:11:22;100356.22;;;5.64;93.63
73101;BME280;61288;53.446;-2.266;2022-10-16T06:13:53;100359.69;;;5.63;94.13
73101;BME280;61288;53.446;-2.266;2022-10-16T06:16:19;100363.97;;;5.63;94.35
73101;BME280;61288;53.446;-2.266;2022-10-16T06:18:45;100356.34;;;5.60;93.74
73101;BME280;61288;53.446;-2.266;2022-10-16T06:21:18;100361.50;;;5.58;94.06
73101;BME280;61288;53.446;-2.266;2022-10-16T06:23:44;100364.13;;;5.57;94.94
73101;BME280;61288;53.446;-2.266;2022-10-16T06:26:13;100371.03;;;5.55;94.45
73101;BME280;61288;53.446;-2.266;2022-10-16T06:28:40;100371.06;;;5.53;93.96
73101;BME280;61288;53.446;-2.266;2022-10-16T06:31:07;100375.38;;;5.53;93.81
73101;BME280;61288;53.446;-2.266;2022-10-16T06:33:34;100384.78;;;5.52;94.17
73101;BME280;61288;53.446;-2.266;2022-10-16T06:36:08;100382.28;;;5.51;93.76
73101;BME280;61288;53.446;-2.266;2022-10-16T06:38:34;100395.13;;;5.51;93.20
73101;BME280;61288;53.446;-2.266;2022-10-16T06:41:00;100399.38;;;5.52;93.64
73101;BME280;61288;53.446;-2.266;2022-10-16T06:43:28;100399.38;;;5.52;93.22
73101;BME280;61288;53.446;-2.266;2022-10-16T06:45:58;100405.34;;;5.52;93.27
73101;BME280;61288;53.446;-2.266;2022-10-16T06:48:24;100409.66;;;5.52;93.75
73101;BME280;61288;53.446;-2.266;2022-10-16T06:51:04;100428.47;;;5.52;94.06
73101;BME280;61288;53.446;-2.266;2022-10-16T06:53:32;100425.09;;;5.50;93.79
73101;BME280;61288;53.446;-2.266;2022-10-16T06:56:10;100427.66;;;5.50;92.96
73101;BME280;61288;53.446;-2.266;2022-10-16T06:58:36;100441.38;;;5.51;93.21
73101;BME280;61288;53.446;-2.266;2022-10-16T07:01:03;100439.63;;;5.51;93.28
73101;BME280;61288;53.446;-2.266;2022-10-16T07:03:28;100449.03;;;5.52;92.96
73101;BME280;61288;53.446;-2.266;2022-10-16T07:05:54;100458.50;;;5.52;92.49
73101;BME280;61288;53.446;-2.266;2022-10-16T07:08:19;100457.59;;;5.53;92.65
73101;BME280;61288;53.446;-2.266;2022-10-16T07:10:45;100470.41;;;5.54;92.89
73101;BME280;61288;53.446;-2.266;2022-10-16T07:13:12;100473.78;;;5.56;92.67
73101;BME280;61288;53.446;-2.266;2022-10-16T07:15:40;100478.91;;;5.58;92.99
73101;BME280;61288;53.446;-2.266;2022-10-16T07:18:06;100483.09;;;5.62;92.68
73101;BME280;61288;53.446;-2.266;2022-10-16T07:20:32;100486.44;;;5.66;92.18
73101;BME280;61288;53.446;-2.266;2022-10-16T07:22:58;100489.75;;;5.69;92.93
73101;BME280;61288;53.446;-2.266;2022-10-16T07:25:23;100494.84;;;5.72;92.58
73101;BME280;61288;53.446;-2.266;2022-10-16T07:27:49;100508.47;;;5.76;93.21
73101;BME280;61288;53.446;-2.266;2022-10-16T07:30:14;100504.09;;;5.79;93.13
73101;BME280;61288;53.446;-2.266;2022-10-16T07:32:40;100519.47;;;5.83;92.16
73101;BME280;61288;53.446;-2.266;2022-10-16T07:35:06;100530.47;;;5.88;92.47
73101;BME280;61288;53.446;-2.266;2022-10-16T07:37:31;100541.41;;;5.96;92.16
73101;BME280;61288;53.446;-2.266;2022-10-16T07:39:57;100546.50;;;5.99;91.40
73101;BME280;61288;53.446;-2.266;2022-10-16T07:42:23;100554.97;;;6.04;91.85
73101;BME280;61288;53.446;-2.266;2022-10-16T07:44:48;100562.59;;;6.09;91.62
73101;BME280;61288;53.446;-2.266;2022-10-16T07:47:15;100571.13;;;6.11;92.15
73101;BME280;61288;53.446;-2.266;2022-10-16T07:49:41;100578.78;;;6.13;91.69
73101;BME280;61288;53.446;-2.266;2022-10-16T07:52:06;100590.59;;;6.21;91.58
73101;BME280;61288;53.446;-2.266;2022-10-16T07:54:32;100600.72;;;6.28;90.98
73101;BME280;61288;53.446;-2.266;2022-10-16T07:56:57;100599.72;;;6.35;91.15
73101;BME280;61288;53.446;-2.266;2022-10-16T07:59:23;100606.38;;;6.42;90.30
73101;BME280;61288;53.446;-2.266;2022-10-16T08:01:49;100606.28;;;6.47;90.21
73101;BME280;61288;53.446;-2.266;2022-10-16T08:04:15;100612.09;;;6.54;90.47
73101;BME280;61288;53.446;-2.266;2022-10-16T08:06:42;100614.50;;;6.61;90.67
73101;BME280;61288;53.446;-2.266;2022-10-16T08:09:08;100614.25;;;6.71;90.12
73101;BME280;61288;53.446;-2.266;2022-10-16T08:11:34;100613.25;;;6.76;90.50
73101;BME280;61288;53.446;-2.266;2022-10-16T08:14:00;100617.31;;;6.85;89.65
73101;BME280;61288;53.446;-2.266;2022-10-16T08:16:25;100629.97;;;6.94;89.58
73101;BME280;61288;53.446;-2.266;2022-10-16T08:18:51;100634.03;;;7.03;89.53
73101;BME280;61288;53.446;-2.266;2022-10-16T08:21:19;100642.34;;;7.13;89.22
73101;BME280;61288;53.446;-2.266;2022-10-16T08:23:45;100642.91;;;7.25;87.80
73101;BME280;61288;53.446;-2.266;2022-10-16T08:26:12;100649.53;;;7.33;87.66
73101;BME280;61288;53.446;-2.266;2022-10-16T08:28:38;100663.06;;;7.42;87.76
73101;BME280;61288;53.446;-2.266;2022-10-16T08:31:08;100673.97;;;7.50;86.52
73101;BME280;61288;53.446;-2.266;2022-10-16T08:33:35;100666.94;;;7.57;85.85
73101;BME280;61288;53.446;-2.266;2022-10-16T08:36:02;100659.72;;;7.68;85.73
73101;BME280;61288;53.446;-2.266;2022-10-16T08:38:28;100672.31;;;7.79;86.18
73101;BME280;61288;53.446;-2.266;2022-10-16T08:41:03;100674.50;;;7.91;85.65
73101;BME280;61288;53.446;-2.266;2022-10-16T08:46:46;100681.72;;;8.10;84.98
73101;BME280;61288;53.446;-2.266;2022-10-16T08:49:14;100688.28;;;8.20;84.74
73101;BME280;61288;53.446;-2.266;2022-10-16T08:51:43;100699.34;;;8.24;83.55
73101;BME280;61288;53.446;-2.266;2022-10-16T08:56:57;100710.06;;;8.40;82.30
73101;BME280;61288;53.446;-2.266;2022-10-16T08:59:26;100715.72;;;8.53;83.86
73101;BME280;61288;53.446;-2.266;2022-10-16T09:01:59;100723.19;;;8.61;83.34
73101;BME280;61288;53.446;-2.266;2022-10-16T09:18:40;100726.66;;;9.14;80.14
73101;BME280;61288;53.446;-2.266;2022-10-16T09:21:19;100735.28;;;9.14;78.49
73101;BME280;61288;53.446;-2.266;2022-10-16T09:23:47;100741.66;;;9.29;79.90
73101;BME280;61288;53.446;-2.266;2022-10-16T09:26:14;100734.41;;;9.39;78.56
73101;BME280;61288;53.446;-2.266;2022-10-16T09:28:41;100733.31;;;9.46;79.68
73101;BME280;61288;53.446;-2.266;2022-10-16T09:31:19;100738.03;;;9.59;78.61
73101;BME280;61288;53.446;-2.266;2022-10-16T09:33:48;100754.78;;;9.72;78.45
73101;BME280;61288;53.446;-2.266;2022-10-16T09:36:16;100744.50;;;9.71;76.94
73101;BME280;61288;53.446;-2.266;2022-10-16T09:38:43;100747.00;;;9.74;77.12
73101;BME280;61288;53.446;-2.266;2022-10-16T09:41:20;100745.84;;;9.81;76.50
73101;BME280;61288;53.446;-2.266;2022-10-16T09:49:04;100749.97;;;9.87;75.11
73101;BME280;61288;53.446;-2.266;2022-10-16T09:51:31;100751.06;;;10.03;76.59
73101;BME280;61288;53.446;-2.266;2022-10-16T09:54:02;100747.06;;;10.18;76.49
73101;BME280;61288;53.446;-2.266;2022-10-16T09:56:33;100743.28;;;10.27;74.36
73101;BME280;61288;53.446;-2.266;2022-10-16T09:59:08;100745.63;;;10.33;75.43
73101;BME280;61288;53.446;-2.266;2022-10-16T10:01:51;100754.84;;;10.42;74.23
73101;BME280;61288;53.446;-2.266;2022-10-16T10:04:18;100764.25;;;10.45;73.89
73101;BME280;61288;53.446;-2.266;2022-10-16T10:06:57;100757.84;;;10.53;74.08
73101;BME280;61288;53.446;-2.266;2022-10-16T10:09:42;100751.31;;;10.65;73.70
73101;BME280;61288;53.446;-2.266;2022-10-16T10:12:21;100761.44;;;10.72;72.64
73101;BME280;61288;53.446;-2.266;2022-10-16T10:14:50;100758.81;;;10.73;71.85
73101;BME280;61288;53.446;-2.266;2022-10-16T10:17:46;100755.91;;;10.59;71.85
73101;BME280;61288;53.446;-2.266;2022-10-16T10:22:50;100757.66;;;10.58;72.21
73101;BME280;61288;53.446;-2.266;2022-10-16T10:30:41;100764.06;;;10.92;70.97
73101;BME280;61288;53.446;-2.266;2022-10-16T10:36:10;100769.41;;;11.31;70.71
73101;BME280;61288;53.446;-2.266;2022-10-16T10:38:46;100775.56;;;11.49;68.43
73101;BME280;61288;53.446;-2.266;2022-10-16T10:46:35;100769.97;;;11.58;68.13
73101;BME280;61288;53.446;-2.266;2022-10-16T10:58:10;100786.19;;;11.63;65.98
73101;BME280;61288;53.446;-2.266;2022-10-16T11:00:03;100790.72;;;11.58;65.57
73101;BME280;61288;53.446;-2.266;2022-10-16T11:02:40;100800.31;;;11.56;66.01
73101;BME280;61288;53.446;-2.266;2022-10-16T11:05:27;100794.81;;;11.64;66.21
73101;BME280;61288;53.446;-2.266;2022-10-16T11:10:46;100793.28;;;11.79;66.41
73101;BME280;61288;53.446;-2.266;2022-10-16T11:15:42;100801.81;;;11.62;65.19
73101;BME280;61288;53.446;-2.266;2022-10-16T11:18:22;100806.59;;;11.71;65.68
73101;BME280;61288;53.446;-2.266;2022-10-16T11:20:53;100800.84;;;11.64;66.04
73101;BME280;61288;53.446;-2.266;2022-10-16T11:23:36;100796.91;;;11.55;63.61
73101;BME280;61288;53.446;-2.266;2022-10-16T11:26:05;100803.31;;;11.47;66.25
73101;BME280;61288;53.446;-2.266;2022-10-16T11:28:38;100807.19;;;11.57;66.74
73101;BME280;61288;53.446;-2.266;2022-10-16T11:39:16;100808.47;;;11.88;65.46
73101;BME280;61288;53.446;-2.266;2022-10-16T11:41:51;100810.81;;;11.94;66.12
73101;BME280;61288;53.446;-2.266;2022-10-16T11:44:34;100805.72;;;11.91;63.74
73101;BME280;61288;53.446;-2.266;2022-10-16T11:49:32;100799.84;;;11.88;63.32
73101;BME280;61288;53.446;-2.266;2022-10-16T11:54:52;100794.38;;;11.94;65.63
73101;BME280;61288;53.446;-2.266;2022-10-16T11:57:24;100788.41;;;11.92;60.67
73101;BME280;61288;53.446;-2.266;2022-10-16T12:00:02;100789.94;;;11.96;62.25
73101;BME280;61288;53.446;-2.266;2022-10-16T12:07:41;100788.19;;;11.77;62.12
73101;BME280;61288;53.446;-2.266;2022-10-16T12:10:26;100780.13;;;11.83;63.43
73101;BME280;61288;53.446;-2.266;2022-10-16T12:12:52;100769.31;;;11.93;64.11
73101;BME280;61288;53.446;-2.266;2022-10-16T12:15:29;100786.19;;;12.03;65.92
73101;BME280;61288;53.446;-2.266;2022-10-16T12:17:55;100785.84;;;12.11;62.74
73101;BME280;61288;53.446;-2.266;2022-10-16T12:20:23;100791.47;;;12.21;63.20
73101;BME280;61288;53.446;-2.266;2022-10-16T12:22:56;100799.75;;;12.29;63.21
73101;BME280;61288;53.446;-2.266;2022-10-16T12:25:26;100807.09;;;12.38;64.12
73101;BME280;61288;53.446;-2.266;2022-10-16T12:28:06;100817.28;;;12.43;62.67
73101;BME280;61288;53.446;-2.266;2022-10-16T12:30:40;100817.09;;;12.48;63.37
73101;BME280;61288;53.446;-2.266;2022-10-16T12:33:25;100815.47;;;12.45;63.24
73101;BME280;61288;53.446;-2.266;2022-10-16T12:35:53;100816.09;;;12.31;61.88
73101;BME280;61288;53.446;-2.266;2022-10-16T12:38:21;100825.09;;;12.24;63.00
73101;BME280;61288;53.446;-2.266;2022-10-16T12:41:06;100823.47;;;12.02;63.24
73101;BME280;61288;53.446;-2.266;2022-10-16T12:43:46;100826.38;;;11.94;63.17
73101;BME280;61288;53.446;-2.266;2022-10-16T12:48:43;100841.56;;;11.83;65.22
73101;BME280;61288;53.446;-2.266;2022-10-16T12:51:24;100831.31;;;11.80;64.77
73101;BME280;61288;53.446;-2.266;2022-10-16T12:59:24;100833.75;;;11.64;65.88
73101;BME280;61288;53.446;-2.266;2022-10-16T13:04:33;100837.06;;;11.67;65.98
73101;BME280;61288;53.446;-2.266;2022-10-16T13:10:52;100846.22;;;11.55;65.18
73101;BME280;61288;53.446;-2.266;2022-10-16T13:18:20;100846.78;;;11.41;65.49
73101;BME280;61288;53.446;-2.266;2022-10-16T13:28:31;100842.03;;;11.31;65.29
73101;BME280;61288;53.446;-2.266;2022-10-16T13:31:01;100846.41;;;11.30;66.16
73101;BME280;61288;53.446;-2.266;2022-10-16T13:33:46;100836.03;;;11.30;64.37
73101;BME280;61288;53.446;-2.266;2022-10-16T13:36:28;100831.53;;;11.34;65.97
73101;BME280;61288;53.446;-2.266;2022-10-16T13:41:31;100828.94;;;11.34;65.78
73101;BME280;61288;53.446;-2.266;2022-10-16T13:43:57;100830.72;;;11.33;65.96
73101;BME280;61288;53.446;-2.266;2022-10-16T13:46:24;100823.88;;;11.31;65.76
73101;BME280;61288;53.446;-2.266;2022-10-16T13:49:01;100823.06;;;11.30;66.74
73101;BME280;61288;53.446;-2.266;2022-10-16T13:51:28;100812.00;;;11.25;67.30
73101;BME280;61288;53.446;-2.266;2022-10-16T13:53:55;100825.31;;;11.17;65.35
73101;BME280;61288;53.446;-2.266;2022-10-16T13:56:22;100821.97;;;11.13;65.96
73101;BME280;61288;53.446;-2.266;2022-10-16T13:59:01;100822.75;;;11.16;66.34
73101;BME280;61288;53.446;-2.266;2022-10-16T14:01:41;100826.22;;;11.16;65.78
73101;BME280;61288;53.446;-2.266;2022-10-16T14:04:10;100814.16;;;11.15;65.38
73101;BME280;61288;53.446;-2.266;2022-10-16T14:06:41;100827.03;;;11.17;66.57
73101;BME280;61288;53.446;-2.266;2022-10-16T14:09:13;100818.31;;;11.19;66.17
73101;BME280;61288;53.446;-2.266;2022-10-16T14:11:56;100830.97;;;11.27;67.93
73101;BME280;61288;53.446;-2.266;2022-10-16T14:14:23;100821.28;;;11.31;66.65
73101;BME280;61288;53.446;-2.266;2022-10-16T14:16:50;100822.78;;;11.36;65.53
73101;BME280;61288;53.446;-2.266;2022-10-16T14:19:25;100825.00;;;11.46;67.09
73101;BME280;61288;53.446;-2.266;2022-10-16T14:21:52;100828.81;;;11.58;66.16
73101;BME280;61288;53.446;-2.266;2022-10-16T14:26:56;100815.63;;;11.83;66.22
73101;BME280;61288;53.446;-2.266;2022-10-16T14:29:23;100815.47;;;12.07;64.75
73101;BME280;61288;53.446;-2.266;2022-10-16T14:32:03;100826.31;;;12.36;63.46
73101;BME280;61288;53.446;-2.266;2022-10-16T14:34:35;100821.84;;;12.57;64.18
73101;BME280;61288;53.446;-2.266;2022-10-16T14:37:09;100823.56;;;12.76;64.12
73101;BME280;61288;53.446;-2.266;2022-10-16T14:39:40;100829.56;;;12.95;60.64
73101;BME280;61288;53.446;-2.266;2022-10-16T14:42:14;100828.81;;;12.93;59.85
73101;BME280;61288;53.446;-2.266;2022-10-16T14:44:43;100821.22;;;12.89;61.95
73101;BME280;61288;53.446;-2.266;2022-10-16T14:47:16;100827.63;;;12.64;59.74
73101;BME280;61288;53.446;-2.266;2022-10-16T14:49:42;100820.75;;;12.44;60.06
73101;BME280;61288;53.446;-2.266;2022-10-16T14:52:10;100820.38;;;12.32;60.44
73101;BME280;61288;53.446;-2.266;2022-10-16T14:54:36;100815.53;;;12.24;64.01
73101;BME280;61288;53.446;-2.266;2022-10-16T14:57:01;100813.22;;;12.18;61.93